Totland Bay, United Kingdom
Current Conditions -  °F | °C
As of 10:50 PM on Thursday 30 Oct 2014 (Local Time) from EGHH Reporting Station
Light Fog Light Fog  
Wind Chill: 55°   Ceiling: Unl
Heat Index: 55°   Visibility: 5mi
Dew Point: 55°   Wind: 3mph
Humidity: 100%   Direction: 150°SSE
Pressure: 30.03"   Gusts: NA
Location:  50.68°N, 1.53°W
Report Text: EGHH 302250Z 15003KT 8000 MIFG NSC 13/13 Q1017
Loading
Personal Weather Stations






























Interactive Weather Map New forecast layout! Learn more

10-Day Weather Forecast

Advertisements
Track Severe Weather on mobile